Time;durP1;ratioP1;P1;durP2;ratioP2;P2;SDS_P1;SDS_P2;PMS_P1;PMS_P2;Temp;Humidity;BMP_temperature;BMP_pressure;BME280_temperature;BME280_humidity;BME280_pressure;Samples;Min_cycle;Max_cycle;Signal;HPM_P1;HPM_P2
2021/08/23 00:00:20;;;;;;;5.90;3.97;;;;;;;16.41;77.67;99271.44;2621195;54;20061;-70
2021/08/23 00:02:52;;;;;;;6.07;3.50;;;;;;;16.36;78.13;99272.09;2617355;54;20071;-70
2021/08/23 00:05:22;;;;;;;6.65;3.97;;;;;;;16.28;78.09;99272.38;2617711;54;20174;-68
2021/08/23 00:07:51;;;;;;;6.30;4.10;;;;;;;16.31;78.09;99280.75;2617554;54;20236;-69
2021/08/23 00:10:22;;;;;;;5.35;3.22;;;;;;;16.31;78.38;99272.75;2617687;54;20034;-70
2021/08/23 00:12:51;;;;;;;7.35;4.18;;;;;;;16.43;78.52;99274.72;2617070;47;20049;-69
2021/08/23 00:15:21;;;;;;;5.50;3.45;;;;;;;16.56;78.21;99263.91;2617852;54;20035;-70
2021/08/23 00:17:53;;;;;;;5.82;3.63;;;;;;;16.63;78.01;99270.00;2617463;54;20086;-70
2021/08/23 00:20:31;;;;;;;8.27;3.97;;;;;;;16.71;77.73;99274.25;2617772;54;20106;-69
2021/08/23 00:23:02;;;;;;;6.82;3.83;;;;;;;16.71;77.78;99272.41;2617777;54;20067;-69
2021/08/23 00:25:32;;;;;;;7.85;4.68;;;;;;;16.66;77.45;99269.56;2617829;54;20089;-69
2021/08/23 00:28:01;;;;;;;6.55;4.00;;;;;;;16.60;78.20;99273.13;2617428;54;20106;-68
2021/08/23 00:30:31;;;;;;;9.27;3.70;;;;;;;16.67;78.11;99270.38;2617176;47;20037;-69
2021/08/23 00:33:03;;;;;;;7.35;3.85;;;;;;;16.73;78.24;99270.34;2617151;54;20597;-70
2021/08/23 00:35:33;;;;;;;5.60;3.85;;;;;;;16.76;77.68;99261.06;2617652;39;20461;-70
2021/08/23 00:38:03;;;;;;;5.47;4.32;;;;;;;16.77;78.01;99266.19;2617399;54;20033;-71
2021/08/23 00:40:33;;;;;;;8.25;4.47;;;;;;;16.80;77.69;99257.75;2617660;54;20038;-71
2021/08/23 00:43:03;;;;;;;5.35;4.00;;;;;;;16.74;77.38;99255.97;2617847;54;20030;-72
2021/08/23 00:45:33;;;;;;;8.65;4.25;;;;;;;16.75;77.56;99256.78;2617688;54;20025;-71
2021/08/23 00:48:06;;;;;;;8.02;3.72;;;;;;;16.74;77.79;99255.97;2617481;54;20023;-72
2021/08/23 00:50:36;;;;;;;9.65;5.35;;;;;;;16.71;77.51;99258.22;2617854;54;20038;-71
2021/08/23 00:53:06;;;;;;;12.80;6.63;;;;;;;16.73;77.57;99256.19;2617686;54;20114;-71
2021/08/23 00:55:35;;;;;;;7.78;4.57;;;;;;;16.72;77.37;99254.53;2617173;47;20045;-70
2021/08/23 00:58:05;;;;;;;9.80;4.78;;;;;;;16.68;77.56;99259.47;2617356;54;20146;-71
2021/08/23 01:00:39;;;;;;;9.30;4.15;;;;;;;16.64;77.38;99254.81;2617714;54;20546;-71
2021/08/23 01:03:15;;;;;;;8.43;4.72;;;;;;;16.63;78.21;99262.00;2617636;39;20418;-70
2021/08/23 01:05:46;;;;;;;8.77;4.15;;;;;;;16.67;78.00;99259.72;2617744;54;20018;-69
2021/08/23 01:08:26;;;;;;;7.95;4.40;;;;;;;16.71;78.13;99266.25;2616652;54;20183;-71
2021/08/23 01:10:58;;;;;;;5.78;4.07;;;;;;;16.76;77.89;99267.22;2617747;54;20174;-71
2021/08/23 01:13:29;;;;;;;6.93;3.67;;;;;;;16.74;77.76;99260.50;2617647;54;20026;-69
2021/08/23 01:15:59;;;;;;;7.28;4.18;;;;;;;16.76;77.80;99264.56;2617656;54;20142;-69
2021/08/23 01:18:32;;;;;;;10.13;5.13;;;;;;;16.76;77.82;99253.06;2616662;54;20027;-70
2021/08/23 01:21:03;;;;;;;11.60;5.95;;;;;;;16.74;77.30;99255.16;2616989;47;20146;-69
2021/08/23 01:23:37;;;;;;;8.65;5.03;;;;;;;16.73;77.50;99253.50;2617418;54;20018;-68
2021/08/23 01:26:07;;;;;;;;;;;;;;;16.68;77.08;99256.81;2617960;39;20537;-69
2021/08/23 01:28:44;;;;;;;10.40;3.90;;;;;;;16.63;77.08;99258.53;2616689;47;19950;-71
2021/08/23 01:31:23;;;;;;;4.53;3.40;;;;;;;16.63;77.23;99264.66;2617289;54;20134;-69
2021/08/23 01:33:56;;;;;;;6.68;3.95;;;;;;;16.59;77.33;99263.47;2616724;47;20085;-68
2021/08/23 01:36:26;;;;;;;5.85;3.90;;;;;;;16.54;77.19;99261.47;2617000;54;20022;-70
2021/08/23 01:38:56;;;;;;;5.30;3.33;;;;;;;16.47;77.40;99257.22;2617433;54;20045;-69
2021/08/23 01:41:26;;;;;;;4.85;3.40;;;;;;;16.44;77.53;99263.00;2617187;54;20673;-69
2021/08/23 01:43:56;;;;;;;6.45;3.80;;;;;;;16.38;78.28;99262.03;2617175;54;20570;-69
2021/08/23 01:46:30;;;;;;;5.15;4.15;;;;;;;16.40;77.94;99264.47;2616181;54;20031;-70
2021/08/23 01:49:04;;;;;;;6.75;4.03;;;;;;;16.27;78.26;99255.56;2617335;54;20019;-68
2021/08/23 01:51:34;;;;;;;6.57;3.97;;;;;;;16.26;78.35;99253.13;2617204;54;20600;-68
2021/08/23 01:54:04;;;;;;;8.52;3.70;;;;;;;16.34;78.67;99248.31;2616747;54;20042;-69
2021/08/23 01:56:34;;;;;;;8.10;3.60;;;;;;;16.36;77.78;99248.09;2617159;31;20502;-70
2021/08/23 01:59:04;;;;;;;7.80;4.03;;;;;;;16.39;77.78;99244.97;2617761;54;20569;-71
2021/08/23 02:01:34;;;;;;;5.60;3.83;;;;;;;16.38;77.82;99251.38;2617700;54;20034;-71
2021/08/23 02:04:07;;;;;;;5.65;3.53;;;;;;;16.39;77.88;99258.31;2617404;54;20030;-70
2021/08/23 02:06:36;;;;;;;7.38;4.28;;;;;;;16.40;77.61;99265.28;2617090;54;20605;-71
2021/08/23 02:09:07;;;;;;;5.25;3.80;;;;;;;16.37;77.44;99260.41;2616804;47;20158;-72
2021/08/23 02:11:36;;;;;;;5.32;3.70;;;;;;;16.35;78.23;99257.13;2617574;54;20034;-71
2021/08/23 02:14:06;;;;;;;8.02;4.00;;;;;;;16.39;77.64;99255.66;2617505;54;20121;-71
2021/08/23 02:16:38;;;;;;;6.05;4.15;;;;;;;16.46;77.69;99258.28;2617066;51;20039;-72
2021/08/23 02:19:11;;;;;;;6.23;3.40;;;;;;;16.48;77.51;99254.34;2618348;54;20064;-71
2021/08/23 02:21:52;;;;;;;6.40;4.15;;;;;;;16.53;77.26;99251.00;2618068;47;20580;-72
2021/08/23 02:24:23;;;;;;;4.90;3.90;;;;;;;16.55;77.63;99262.28;2618334;54;20575;-70
2021/08/23 02:26:53;;;;;;;5.32;3.90;;;;;;;16.55;77.67;99255.09;2617978;54;20031;-71
2021/08/23 02:29:22;;;;;;;7.32;4.05;;;;;;;16.56;77.31;99261.25;2618153;54;20074;-71
2021/08/23 02:31:52;;;;;;;5.57;3.58;;;;;;;16.56;77.34;99267.38;2618331;54;20043;-71
2021/08/23 02:34:25;;;;;;;6.35;4.05;;;;;;;16.58;76.91;99264.53;2618216;54;20151;-70
2021/08/23 02:36:54;;;;;;;7.38;4.15;;;;;;;16.61;76.89;99261.38;2617940;54;20051;-70
2021/08/23 02:39:24;;;;;;;8.52;4.10;;;;;;;16.58;77.12;99257.31;2618326;54;20022;-70
2021/08/23 02:41:54;;;;;;;6.40;3.83;;;;;;;16.52;76.76;99258.19;2618929;54;20022;-71
2021/08/23 02:44:23;;;;;;;4.60;3.72;;;;;;;16.52;77.29;99260.06;2618849;39;20531;-70
2021/08/23 02:46:53;;;;;;;4.53;3.55;;;;;;;16.53;77.32;99259.00;2617777;54;20042;-70
2021/08/23 02:49:26;;;;;;;8.52;4.20;;;;;;;16.53;76.89;99261.69;2618062;39;20449;-72
2021/08/23 02:51:57;;;;;;;5.78;4.22;;;;;;;16.56;77.23;99261.25;2618194;54;20026;-71
2021/08/23 02:54:26;;;;;;;6.00;3.63;;;;;;;16.59;77.12;99264.28;2618302;54;20122;-71
2021/08/23 02:56:56;;;;;;;7.07;4.10;;;;;;;16.54;76.64;99268.66;2617872;54;20030;-71
2021/08/23 02:59:25;;;;;;;8.98;4.68;;;;;;;16.51;77.05;99261.09;2617776;54;20038;-70
2021/08/23 03:01:55;;;;;;;6.25;3.83;;;;;;;16.49;77.58;99258.66;2618175;54;20038;-71
2021/08/23 03:04:27;;;;;;;6.70;3.97;;;;;;;16.56;77.58;99247.91;2619528;54;20037;-71
2021/08/23 03:06:57;;;;;;;5.35;3.78;;;;;;;16.58;77.34;99254.66;2623387;39;20457;-71
2021/08/23 03:09:26;;;;;;;6.55;3.78;;;;;;;16.60;77.15;99257.91;2624249;54;20027;-70
2021/08/23 03:11:56;;;;;;;7.35;4.70;;;;;;;16.60;77.17;99259.75;2624819;54;20046;-69
2021/08/23 03:14:25;;;;;;;6.38;4.18;;;;;;;16.57;77.33;99258.38;2625043;54;20031;-70
2021/08/23 03:16:55;;;;;;;7.25;4.47;;;;;;;16.59;77.08;99266.97;2624023;54;20031;-72
2021/08/23 03:19:27;;;;;;;6.00;3.58;;;;;;;16.62;77.05;99263.03;2625751;39;20403;-71
2021/08/23 03:21:57;;;;;;;5.28;3.78;;;;;;;16.62;77.58;99262.22;2624870;54;20541;-72
2021/08/23 03:24:26;;;;;;;6.75;4.20;;;;;;;16.64;77.78;99263.63;2619963;54;20019;-70
2021/08/23 03:26:56;;;;;;;7.10;3.97;;;;;;;16.67;77.23;99265.06;2617862;54;20082;-70
2021/08/23 03:29:25;;;;;;;7.25;4.70;;;;;;;16.68;76.99;99266.69;2617497;51;20129;-71
2021/08/23 03:31:55;;;;;;;8.02;4.00;;;;;;;16.66;77.41;99271.44;2617467;54;20031;-71
2021/08/23 03:34:27;;;;;;;7.10;4.35;;;;;;;16.65;76.96;99267.09;2617483;54;20034;-71
2021/08/23 03:36:57;;;;;;;8.95;5.45;;;;;;;16.67;77.29;99262.38;2617849;54;20018;-70
2021/08/23 03:39:26;;;;;;;10.13;4.30;;;;;;;16.64;77.28;99263.63;2617932;54;20146;-71
2021/08/23 03:41:57;;;;;;;6.85;4.20;;;;;;;16.68;77.07;99256.81;2618062;54;20134;-70
2021/08/23 03:44:26;;;;;;;6.57;4.15;;;;;;;16.69;77.04;99252.28;2617980;54;20557;-70
2021/08/23 03:46:56;;;;;;;8.52;5.28;;;;;;;16.68;77.06;99248.00;2617615;54;20038;-70
2021/08/23 03:49:28;;;;;;;8.90;6.07;;;;;;;16.69;77.49;99249.63;2616995;47;20114;-69
2021/08/23 03:51:57;;;;;;;6.97;4.13;;;;;;;16.63;77.28;99251.31;2617803;54;20026;-68
2021/08/23 03:54:27;;;;;;;8.00;4.05;;;;;;;16.59;77.21;99253.63;2617663;54;20030;-70
2021/08/23 03:56:56;;;;;;;8.23;4.50;;;;;;;16.58;77.28;99253.84;2617333;54;20045;-69
2021/08/23 03:59:26;;;;;;;7.95;4.20;;;;;;;16.57;77.00;99253.03;2617157;54;20082;-69
2021/08/23 04:01:55;;;;;;;8.98;4.20;;;;;;;16.54;77.37;99252.66;2618042;39;20517;-71
2021/08/23 04:04:28;;;;;;;6.68;4.18;;;;;;;16.55;77.24;99251.63;2618228;39;20429;-71
2021/08/23 04:06:57;;;;;;;8.18;4.22;;;;;;;16.50;77.17;99259.47;2617881;39;20499;-70
2021/08/23 04:09:27;;;;;;;6.20;4.55;;;;;;;16.49;77.19;99255.16;2617233;46;20621;-71
2021/08/23 04:11:56;;;;;;;6.03;3.90;;;;;;;16.47;77.62;99254.56;2617373;54;20038;-70
2021/08/23 04:14:26;;;;;;;5.45;4.72;;;;;;;16.42;77.61;99270.41;2617217;54;20038;-70
2021/08/23 04:16:55;;;;;;;4.10;3.70;;;;;;;16.42;77.66;99263.22;2616935;47;20056;-69
2021/08/23 04:19:27;;;;;;;6.82;4.57;;;;;;;16.48;78.14;99266.88;2618464;31;20467;-70
2021/08/23 04:21:57;;;;;;;6.50;4.47;;;;;;;16.52;77.55;99273.41;2617754;54;20122;-69
2021/08/23 04:24:27;;;;;;;7.10;4.03;;;;;;;16.55;77.84;99271.09;2617449;54;20126;-70
2021/08/23 04:26:56;;;;;;;5.78;3.83;;;;;;;16.53;77.32;99269.69;2616913;54;20057;-70
2021/08/23 04:29:26;;;;;;;8.55;4.38;;;;;;;16.47;77.48;99268.72;2618184;39;20545;-70
2021/08/23 04:31:55;;;;;;;9.07;4.85;;;;;;;16.50;77.47;99267.47;2617890;54;20038;-69
2021/08/23 04:34:28;;;;;;;9.95;4.82;;;;;;;16.47;77.45;99270.56;2616982;54;20584;-70
2021/08/23 04:37:03;;;;;;;4.78;4.20;;;;;;;16.49;77.69;99273.81;2617638;39;20518;-70
2021/08/23 04:39:32;;;;;;;6.50;4.22;;;;;;;16.52;77.50;99274.19;2617052;51;20126;-70
2021/08/23 04:42:03;;;;;;;8.13;4.53;;;;;;;16.54;77.42;99274.81;2618000;54;20065;-69
2021/08/23 04:44:32;;;;;;;8.55;4.40;;;;;;;16.56;77.58;99282.59;2617137;54;20031;-69
2021/08/23 04:47:02;;;;;;;5.03;3.97;;;;;;;16.59;77.89;99279.50;2616727;47;20146;-70
2021/08/23 04:49:34;;;;;;;11.02;4.85;;;;;;;16.61;77.46;99285.41;2617418;39;20491;-70
2021/08/23 04:52:04;;;;;;;7.78;4.63;;;;;;;16.62;77.43;99280.91;2617552;39;20526;-71
2021/08/23 04:54:33;;;;;;;8.57;4.47;;;;;;;16.63;77.74;99279.88;2618102;39;20430;-71
2021/08/23 04:57:03;;;;;;;11.15;4.78;;;;;;;16.56;77.67;99285.25;2616645;54;20049;-70
2021/08/23 04:59:33;;;;;;;10.23;4.60;;;;;;;16.56;77.76;99290.59;2616847;51;20038;-70
2021/08/23 05:02:02;;;;;;;7.90;4.50;;;;;;;16.58;77.54;99286.69;2618419;39;20543;-71
2021/08/23 05:04:34;;;;;;;9.65;4.78;;;;;;;16.61;77.84;99293.41;2618583;54;20014;-70
2021/08/23 05:07:04;;;;;;;8.18;5.68;;;;;;;16.66;77.91;99293.59;2618092;54;20074;-70
2021/08/23 05:09:33;;;;;;;8.75;4.90;;;;;;;16.71;77.88;99293.75;2617452;54;20666;-71
2021/08/23 05:12:03;;;;;;;7.60;3.92;;;;;;;16.69;77.38;99289.66;2617993;54;20073;-70
2021/08/23 05:14:32;;;;;;;7.60;4.70;;;;;;;16.73;77.45;99291.69;2617634;54;20113;-70
2021/08/23 05:17:02;;;;;;;6.55;4.43;;;;;;;16.70;77.26;99294.78;2618124;39;20461;-70
2021/08/23 05:19:34;;;;;;;11.35;5.55;;;;;;;16.71;77.34;99288.41;2617610;54;20044;-70
2021/08/23 05:22:04;;;;;;;7.80;5.28;;;;;;;16.72;77.62;99295.38;2617877;54;20155;-70
2021/08/23 05:24:33;;;;;;;9.60;5.25;;;;;;;16.75;77.06;99286.97;2617379;54;20026;-69
2021/08/23 05:27:03;;;;;;;9.07;5.32;;;;;;;16.80;77.24;99287.09;2617254;54;20026;-69
2021/08/23 05:29:32;;;;;;;10.02;6.55;;;;;;;16.86;76.84;99292.59;2617593;54;20046;-69
2021/08/23 05:32:02;;;;;;;12.40;6.90;;;;;;;16.86;76.80;99289.94;2616833;47;20069;-70
2021/08/23 05:34:34;;;;;;;6.43;5.75;;;;;;;16.89;76.98;99287.63;2617350;54;20054;-70
2021/08/23 05:37:05;;;;;;;9.75;6.90;;;;;;;16.94;76.89;99286.97;2617042;54;20533;-68
2021/08/23 05:39:35;;;;;;;10.98;6.05;;;;;;;16.96;76.64;99292.91;2617144;54;20082;-69
2021/08/23 05:42:04;;;;;;;11.13;7.28;;;;;;;16.99;76.96;99292.47;2617463;54;20027;-70
2021/08/23 05:44:34;;;;;;;13.95;7.70;;;;;;;17.02;76.69;99287.50;2617418;54;20114;-69
2021/08/23 05:47:03;;;;;;;11.60;6.57;;;;;;;17.04;76.49;99287.28;2617040;54;20178;-70
2021/08/23 05:49:36;;;;;;;9.85;6.10;;;;;;;17.06;76.76;99288.69;2617405;54;20023;-69
2021/08/23 05:52:06;;;;;;;9.20;5.90;;;;;;;17.09;76.23;99292.75;2618130;54;20137;-68
2021/08/23 05:54:37;;;;;;;8.50;5.90;;;;;;;17.14;76.04;99297.44;2618187;54;20061;-70
2021/08/23 05:57:07;;;;;;;7.55;6.43;;;;;;;17.15;76.52;99291.06;2617061;54;20018;-69
2021/08/23 05:59:46;;;;;;;5.80;5.20;;;;;;;17.14;76.22;99292.09;2618427;39;20434;-69
2021/08/23 06:02:15;;;;;;;8.73;5.65;;;;;;;17.09;76.21;99290.09;2618066;47;20134;-69
2021/08/23 06:04:47;;;;;;;8.57;6.07;;;;;;;17.08;76.43;99294.63;2618244;54;20037;-70
2021/08/23 06:07:17;;;;;;;9.25;6.10;;;;;;;17.10;76.68;99297.06;2617976;54;20074;-69
2021/08/23 06:09:46;;;;;;;9.38;5.88;;;;;;;17.15;76.69;99296.41;2617640;54;20058;-71
2021/08/23 06:12:16;;;;;;;10.45;6.28;;;;;;;17.18;76.70;99303.97;2617746;54;20577;-70
2021/08/23 06:14:46;;;;;;;9.60;5.75;;;;;;;17.21;76.63;99303.53;2618169;54;20778;-70
2021/08/23 06:17:15;;;;;;;9.25;5.72;;;;;;;17.21;76.18;99307.00;2617985;54;20538;-70
2021/08/23 06:19:47;;;;;;;5.95;5.40;;;;;;;17.22;76.57;99297.13;2619141;39;20514;-69
2021/08/23 06:22:17;;;;;;;7.90;6.57;;;;;;;17.26;76.45;99290.31;2617952;54;20034;-69
2021/08/23 06:24:46;;;;;;;10.82;6.28;;;;;;;17.24;75.99;99287.88;2617587;54;20058;-70
2021/08/23 06:27:16;;;;;;;8.57;6.38;;;;;;;17.25;76.31;99299.38;2617128;54;20542;-69
2021/08/23 06:29:45;;;;;;;9.95;6.13;;;;;;;17.24;75.98;99295.88;2617374;51;20081;-69
2021/08/23 06:32:15;;;;;;;7.47;5.80;;;;;;;17.27;76.54;99291.97;2617470;54;20086;-69
2021/08/23 06:34:44;;;;;;;10.82;6.50;;;;;;;17.29;76.09;99290.69;2618062;54;20590;-69
2021/08/23 06:37:18;;;;;;;7.72;6.85;;;;;;;17.32;76.43;99294.75;2617884;54;20526;-69
2021/08/23 06:39:48;;;;;;;10.07;7.68;;;;;;;17.31;75.89;99303.81;2617492;54;20058;-70
2021/08/23 06:42:18;;;;;;;11.10;7.25;;;;;;;17.27;76.22;99298.13;2617639;47;20034;-69
2021/08/23 06:44:47;;;;;;;9.90;7.30;;;;;;;17.31;76.59;99293.94;2618064;54;20111;-70
2021/08/23 06:47:17;;;;;;;9.60;6.55;;;;;;;17.33;75.85;99299.88;2617751;54;20117;-70
2021/08/23 06:49:46;;;;;;;8.25;6.22;;;;;;;17.34;75.82;99298.81;2618164;54;20031;-69
2021/08/23 06:52:18;;;;;;;10.07;6.80;;;;;;;17.44;75.98;99298.31;2618221;54;20022;-70
2021/08/23 06:54:48;;;;;;;9.50;6.40;;;;;;;17.50;75.90;99301.94;2617637;54;20042;-69
2021/08/23 06:57:17;;;;;;;8.75;6.65;;;;;;;17.61;75.88;99303.84;2617847;54;20146;-69
2021/08/23 06:59:51;;;;;;;6.45;5.78;;;;;;;17.73;75.52;99304.72;2617501;54;20061;-69
2021/08/23 07:02:21;;;;;;;10.13;7.00;;;;;;;17.91;74.38;99301.19;2617574;51;20026;-69
2021/08/23 07:04:51;;;;;;;9.75;6.85;;;;;;;18.11;74.03;99303.56;2617416;54;20061;-70
2021/08/23 07:07:23;;;;;;;7.32;6.07;;;;;;;18.21;73.72;99305.72;2617263;54;20026;-70
2021/08/23 07:09:53;;;;;;;9.98;8.55;;;;;;;18.28;73.67;99306.41;2618084;54;20031;-70
2021/08/23 07:12:23;;;;;;;6.10;5.50;;;;;;;18.28;73.99;99309.06;2618137;54;20045;-69
2021/08/23 07:14:52;;;;;;;7.45;5.28;;;;;;;18.22;73.70;99313.50;2618123;54;20046;-69
2021/08/23 07:17:22;;;;;;;6.47;5.57;;;;;;;18.18;73.59;99312.31;2617206;47;20059;-69
2021/08/23 07:19:51;;;;;;;7.03;6.10;;;;;;;18.18;73.63;99308.84;2618172;54;20107;-69
2021/08/23 07:22:26;;;;;;;7.20;5.80;;;;;;;18.20;73.51;99306.72;2618810;39;20429;-69
2021/08/23 07:24:56;;;;;;;8.48;5.10;;;;;;;18.25;74.14;99301.53;2618372;54;20031;-70
2021/08/23 07:27:26;;;;;;;7.45;5.00;;;;;;;18.32;73.25;99302.22;2617709;54;20597;-70
2021/08/23 07:29:56;;;;;;;7.18;5.13;;;;;;;18.38;73.19;99311.19;2618095;54;20038;-70
2021/08/23 07:32:26;;;;;;;5.15;4.65;;;;;;;18.41;72.58;99308.88;2617680;47;20042;-70
2021/08/23 07:34:56;;;;;;;6.20;5.32;;;;;;;18.38;72.71;99306.66;2618333;54;20553;-70
2021/08/23 07:37:29;;;;;;;9.77;5.93;;;;;;;18.41;72.41;99302.69;2618285;39;20407;-70
2021/08/23 07:40:03;;;;;;;4.82;4.32;;;;;;;18.46;72.50;99302.81;2618499;54;20027;-70
2021/08/23 07:42:32;;;;;;;4.78;4.25;;;;;;;18.50;72.02;99307.47;2617564;47;20055;-70
2021/08/23 07:45:03;;;;;;;5.13;4.57;;;;;;;18.51;71.36;99298.41;2618349;54;20038;-70
2021/08/23 07:47:34;;;;;;;4.88;4.00;;;;;;;18.58;71.18;99302.84;2617817;39;20478;-68
2021/08/23 07:50:04;;;;;;;6.53;4.55;;;;;;;18.56;71.61;99303.06;2617762;54;20554;-69
2021/08/23 07:52:39;;;;;;;7.22;4.65;;;;;;;18.41;71.71;99302.69;2618039;54;20042;-68
2021/08/23 07:55:10;;;;;;;5.88;5.03;;;;;;;18.39;72.16;99310.97;2617062;54;20031;-69
2021/08/23 07:57:44;;;;;;;5.32;4.22;;;;;;;18.38;72.29;99309.34;2617288;54;20057;-69
2021/08/23 08:00:15;;;;;;;5.97;4.60;;;;;;;18.39;72.36;99316.31;2617733;54;20561;-69
2021/08/23 08:02:45;;;;;;;4.20;3.80;;;;;;;18.39;72.49;99316.31;2617879;54;20037;-69
2021/08/23 08:05:15;;;;;;;9.43;4.45;;;;;;;18.37;72.59;99315.75;2617682;54;20049;-68
2021/08/23 08:07:48;;;;;;;4.13;3.75;;;;;;;18.30;72.39;99317.69;2617278;54;20038;-69
2021/08/23 08:10:18;;;;;;;6.07;4.20;;;;;;;18.32;72.81;99316.41;2617916;39;20593;-68
2021/08/23 08:12:48;;;;;;;4.78;4.25;;;;;;;18.35;72.12;99325.84;2616710;54;20031;-70
2021/08/23 08:15:18;;;;;;;5.82;3.72;;;;;;;18.27;72.53;99320.81;2617093;54;20113;-67
2021/08/23 08:17:48;;;;;;;6.07;4.38;;;;;;;18.27;72.67;99320.81;2617298;54;20045;-70
2021/08/23 08:20:18;;;;;;;4.15;3.75;;;;;;;18.25;72.72;99323.75;2616849;46;20030;-68
2021/08/23 08:22:51;;;;;;;4.28;3.80;;;;;;;18.25;72.04;99321.06;2617030;47;20039;-69
2021/08/23 08:25:21;;;;;;;4.25;3.85;;;;;;;18.27;71.84;99326.19;2617493;47;20023;-70
2021/08/23 08:27:51;;;;;;;4.55;4.00;;;;;;;18.37;72.17;99323.78;2617491;54;20027;-71
2021/08/23 08:30:22;;;;;;;4.88;4.38;;;;;;;18.46;71.84;99326.91;2617720;54;20550;-69
2021/08/23 08:32:51;;;;;;;4.60;3.53;;;;;;;18.49;71.47;99324.59;2617053;47;20068;-70
2021/08/23 08:35:22;;;;;;;4.95;3.90;;;;;;;18.53;71.50;99322.25;2617010;47;20061;-69
2021/08/23 08:37:54;;;;;;;4.30;3.88;;;;;;;18.66;71.33;99330.09;2617170;54;20075;-69
2021/08/23 08:40:26;;;;;;;4.03;3.63;;;;;;;18.75;70.75;99336.75;2617053;54;20039;-69
2021/08/23 08:42:55;;;;;;;4.43;3.97;;;;;;;18.76;70.45;99333.00;2617955;54;20023;-71
2021/08/23 08:45:26;;;;;;;11.82;10.57;;;;;;;18.92;70.11;99338.72;2617863;54;20039;-70
2021/08/23 08:47:59;;;;;;;5.10;4.60;;;;;;;18.99;69.97;99334.06;2617473;54;20027;-70
2021/08/23 08:50:29;;;;;;;8.20;7.40;;;;;;;19.11;70.00;99337.56;2617420;54;20030;-70
2021/08/23 08:53:05;;;;;;;5.13;4.63;;;;;;;19.23;69.72;99341.03;2617860;54;20030;-71
2021/08/23 08:55:37;;;;;;;4.57;4.18;;;;;;;19.30;68.52;99338.19;2617837;54;20034;-70
2021/08/23 08:58:08;;;;;;;8.80;8.00;;;;;;;19.33;68.29;99340.41;2616718;47;20035;-70
2021/08/23 09:00:40;;;;;;;5.20;4.78;;;;;;;19.30;67.88;99346.25;2617354;47;20046;-69
2021/08/23 09:03:13;;;;;;;4.00;3.22;;;;;;;19.33;68.38;99343.09;2617291;39;20403;-69
2021/08/23 09:05:51;;;;;;;4.00;3.60;;;;;;;19.30;68.30;99349.72;2618095;54;20022;-70
2021/08/23 09:08:28;;;;;;;3.42;3.13;;;;;;;19.36;67.48;99352.53;2617458;54;20038;-70
2021/08/23 09:10:59;;;;;;;4.35;3.92;;;;;;;19.50;66.61;99351.22;2617955;54;20039;-71
2021/08/23 09:13:29;;;;;;;4.35;3.95;;;;;;;19.47;66.36;99355.19;2617556;54;20037;-70
2021/08/23 09:16:00;;;;;;;3.42;3.13;;;;;;;19.56;66.43;99355.63;2617542;54;20042;-69
2021/08/23 09:18:30;;;;;;;3.88;2.95;;;;;;;19.70;66.90;99359.69;2617294;54;20046;-70
2021/08/23 09:21:01;;;;;;;3.42;2.95;;;;;;;19.98;66.81;99358.06;2617903;39;20450;-70
2021/08/23 09:23:39;;;;;;;3.97;3.25;;;;;;;20.18;65.46;99360.31;2617593;54;20039;-69
2021/08/23 09:26:11;;;;;;;3.58;3.28;;;;;;;20.03;64.84;99361.66;2617967;54;20031;-70
2021/08/23 09:28:42;;;;;;;3.30;3.00;;;;;;;20.07;64.99;99369.22;2617772;54;20042;-70
2021/08/23 09:31:13;;;;;;;4.07;3.17;;;;;;;20.14;65.00;99364.53;2618526;46;20058;-69
2021/08/23 09:33:44;;;;;;;3.38;3.08;;;;;;;20.37;64.43;99366.25;2618277;54;20022;-70
2021/08/23 09:36:20;;;;;;;3.22;2.97;;;;;;;20.40;64.48;99368.47;2618654;54;20546;-70
2021/08/23 09:39:07;;;;;;;3.00;2.75;;;;;;;20.50;63.64;99374.88;2617679;54;20041;-71
2021/08/23 09:41:40;;;;;;;3.60;3.30;;;;;;;20.62;64.32;99365.94;2617859;47;20530;-69
2021/08/23 09:44:12;;;;;;;4.38;3.28;;;;;;;20.75;63.55;99374.47;2618167;54;20078;-71
2021/08/23 09:46:43;;;;;;;4.00;3.60;;;;;;;20.87;62.71;99373.56;2617669;54;20035;-71
2021/08/23 09:49:15;;;;;;;4.22;3.75;;;;;;;20.77;63.01;99380.38;2618033;47;20049;-70
2021/08/23 09:51:48;;;;;;;3.92;3.63;;;;;;;20.61;62.87;99378.53;2618239;54;20038;-71
2021/08/23 09:54:21;;;;;;;3.90;3.57;;;;;;;20.55;62.62;99371.44;2618355;54;20033;-69
2021/08/23 09:56:53;;;;;;;5.45;3.15;;;;;;;20.43;62.66;99368.81;2617778;54;20035;-69
2021/08/23 09:59:24;;;;;;;4.32;3.17;;;;;;;20.35;63.34;99371.88;2618094;54;20161;-70
2021/08/23 10:01:56;;;;;;;3.65;2.92;;;;;;;20.36;63.89;99370.00;2617595;47;20023;-69
2021/08/23 10:04:27;;;;;;;6.22;3.75;;;;;;;20.38;63.88;99374.09;2618173;54;20034;-69
2021/08/23 10:06:57;;;;;;;3.60;3.30;;;;;;;20.37;63.14;99380.53;2618065;39;20694;-70
2021/08/23 10:09:30;;;;;;;4.85;4.22;;;;;;;20.32;63.39;99387.66;2618135;54;20045;-70
2021/08/23 10:12:01;;;;;;;;;;;;;;;20.23;63.15;99382.69;2619363;54;20031;-68
2021/08/23 10:14:30;;;;;;;3.85;3.55;;;;;;;20.13;63.12;99379.84;2618709;39;20447;-68
2021/08/23 10:17:00;;;;;;;4.45;3.72;;;;;;;20.13;63.09;99390.56;2617749;54;20114;-69
2021/08/23 10:19:30;;;;;;;4.32;3.20;;;;;;;20.08;63.99;99382.41;2617693;54;20049;-68
2021/08/23 10:22:00;;;;;;;3.60;3.30;;;;;;;20.27;63.16;99383.84;2617437;47;20026;-69
2021/08/23 10:24:33;;;;;;;3.72;3.25;;;;;;;20.18;61.89;99384.47;2617411;54;20038;-68
2021/08/23 10:27:03;;;;;;;;;;;;;;;20.28;62.01;99381.97;2617361;47;20042;-70
2021/08/23 10:29:40;;;;;;;3.70;3.00;;;;;;;20.40;62.57;99385.38;2617847;39;20361;-68
2021/08/23 10:32:12;;;;;;;3.60;2.83;;;;;;;20.64;62.21;99379.91;2617939;54;20029;-69
2021/08/23 10:34:42;;;;;;;4.78;3.35;;;;;;;20.84;60.92;99380.22;2618148;54;20035;-69
2021/08/23 10:37:20;;;;;;;3.25;2.80;;;;;;;20.92;59.70;99387.06;2617228;54;20042;-71
2021/08/23 10:40:04;;;;;;;4.90;3.90;;;;;;;21.02;59.52;99379.16;2617792;54;20046;-70
2021/08/23 10:42:39;;;;;;;3.72;3.03;;;;;;;21.02;58.31;99379.97;2617980;54;20593;-70
2021/08/23 10:45:11;;;;;;;3.65;3.35;;;;;;;21.07;59.05;99381.13;2618462;39;20495;-68
2021/08/23 10:47:41;;;;;;;3.22;2.92;;;;;;;21.19;58.72;99379.94;2617632;54;20042;-71
2021/08/23 10:50:22;;;;;;;3.63;3.05;;;;;;;21.35;57.70;99381.00;2618843;39;20438;-68
2021/08/23 10:52:51;;;;;;;4.05;3.28;;;;;;;21.47;58.83;99372.78;2617606;54;20023;-69
2021/08/23 10:55:29;;;;;;;3.90;3.60;;;;;;;21.71;57.68;99367.97;2617695;47;20542;-70
2021/08/23 10:58:06;;;;;;;4.32;3.80;;;;;;;21.63;56.97;99369.22;2618216;54;20073;-69
2021/08/23 11:00:41;;;;;;;3.22;2.92;;;;;;;21.49;58.17;99359.91;2618653;54;20569;-70
2021/08/23 11:03:11;;;;;;;3.95;3.55;;;;;;;21.68;58.20;99355.84;2618760;54;20030;-69
2021/08/23 11:05:41;;;;;;;3.65;2.83;;;;;;;21.84;58.89;99358.69;2618710;54;20034;-70
2021/08/23 11:08:18;;;;;;;3.80;2.90;;;;;;;22.04;58.07;99360.78;2617357;54;20097;-70
2021/08/23 11:10:50;;;;;;;2.95;2.75;;;;;;;22.17;57.58;99355.06;2618654;54;20034;-70
2021/08/23 11:13:21;;;;;;;3.70;3.33;;;;;;;21.99;57.15;99356.16;2617939;47;20026;-69
2021/08/23 11:15:51;;;;;;;3.40;2.83;;;;;;;21.80;56.82;99354.88;2618758;54;20034;-69
2021/08/23 11:18:22;;;;;;;2.80;2.60;;;;;;;21.54;57.17;99348.41;2618224;39;20477;-69
2021/08/23 11:20:54;;;;;;;3.40;2.50;;;;;;;21.43;57.47;99340.22;2619188;54;20030;-69
2021/08/23 11:23:28;;;;;;;2.42;2.22;;;;;;;21.51;57.82;99339.78;2618712;47;20031;-70
2021/08/23 11:26:01;;;;;;;3.00;2.70;;;;;;;21.58;56.99;99341.47;2621389;54;20030;-69
2021/08/23 11:28:32;;;;;;;3.35;2.40;;;;;;;21.66;57.12;99344.50;2619260;47;20038;-68
2021/08/23 11:31:05;;;;;;;3.90;2.80;;;;;;;21.77;55.93;99346.25;2618649;39;20422;-69
2021/08/23 11:33:36;;;;;;;4.63;2.97;;;;;;;21.81;55.54;99341.19;2618885;39;20429;-68
2021/08/23 11:36:09;;;;;;;3.13;2.38;;;;;;;21.59;55.31;99354.66;2618583;54;20074;-68
2021/08/23 11:38:40;;;;;;;2.63;2.40;;;;;;;21.69;55.77;99346.72;2618363;54;20081;-69
2021/08/23 11:41:14;;;;;;;4.18;2.78;;;;;;;21.85;55.58;99331.56;2619217;39;20078;-68
2021/08/23 11:43:44;;;;;;;3.00;2.78;;;;;;;22.03;55.40;99341.13;2618539;54;20038;-69
2021/08/23 11:46:16;;;;;;;3.50;2.53;;;;;;;22.31;55.35;99339.28;2619118;39;20450;-69
2021/08/23 11:48:45;;;;;;;2.60;2.30;;;;;;;22.63;54.70;99337.38;2618469;54;20034;-69
2021/08/23 11:51:33;;;;;;;4.18;3.00;;;;;;;22.97;52.95;99331.69;2618470;54;20100;-69